Observation data for Brownfield on 01/19/2019      Previous  Date  Next       Current Mesonet Observations  Soil Data  Daily Summary Page  Observations in Plain Language
KBWS 190600Z 33023G30KT 02/M01 A3007 RMK A01 T00201006  RH  084%=      5-min Rain = 0
KBWS 190605Z 34022G27KT 02/M01 A3007 RMK A01 T00201006  RH  084%=      5-min Rain = 0
KBWS 190610Z 33021G27KT 02/M01 A3007 RMK A01 T00201006  RH  084%=      5-min Rain = 0
KBWS 190615Z 33020G25KT 02/M01 A3008 RMK A01 T00201005  RH  085%=      5-min Rain = 0
KBWS 190620Z 33021G26KT 02/M01 A3008 RMK A01 T00201005  RH  085%=      5-min Rain = 0
KBWS 190625Z 33020KT 02/M01 A3008 RMK A01 T00201005  RH  085%=      5-min Rain = 0
KBWS 190630Z 33020G28KT 02/M00 A3008 RMK A01 T00201004  RH  085%=      5-min Rain = 0
KBWS 190635Z 33019KT 02/M00 A3009 RMK A01 T00211003  RH  085%=      5-min Rain = 0
KBWS 190640Z 34018G23KT 02/M01 A3009 RMK A01 T00221005  RH  084%=      5-min Rain = 0
KBWS 190645Z 34019G25KT 02/M01 A3009 RMK A01 T00231008  RH  081%=      5-min Rain = 0
KBWS 190650Z 35022G29KT 02/M01 A301 RMK A01 T00241012  RH  078%=      5-min Rain = 0
KBWS 190655Z 34020G27KT 02/M02 A301 RMK A01 T00241015  RH  076%=      5-min Rain = 0
KBWS 190700Z 34019G24KT 02/M02 A301 RMK A01 T00241016  RH  076%=      5-min Rain = 0
KBWS 190705Z 34019G25KT 02/M02 A301 RMK A01 T00231015  RH  077%=      5-min Rain = 0
KBWS 190710Z 34022G27KT 02/M02 A3011 RMK A01 T00221021  RH  074%=      5-min Rain = 0
KBWS 190715Z 34020G27KT 02/M02 A3011 RMK A01 T00201024  RH  074%=      5-min Rain = 0
KBWS 190720Z 34020G26KT 02/M03 A3011 RMK A01 T00191025  RH  074%=      5-min Rain = 0
KBWS 190725Z 34020G27KT 02/M03 A3012 RMK A01 T00181027  RH  073%=      5-min Rain = 0
KBWS 190730Z 34018G23KT 02/M03 A3012 RMK A01 T00171027  RH  073%=      5-min Rain = 0
KBWS 190735Z 34018G23KT 02/M03 A3012 RMK A01 T00161026  RH  074%=      5-min Rain = 0
KBWS 190740Z 34017G22KT 02/M03 A3012 RMK A01 T00161025  RH  075%=      5-min Rain = 0
KBWS 190745Z 33017G22KT 02/M02 A3012 RMK A01 T00151024  RH  076%=      5-min Rain = 0
KBWS 190750Z 33014KT 01/M02 A3013 RMK A01 T00141022  RH  078%=      5-min Rain = 0
KBWS 190755Z 33014KT 01/M02 A3013 RMK A01 T00141020  RH  079%=      5-min Rain = 0
KBWS 190800Z 32012G17KT 01/M02 A3014 RMK A01 T00131019  RH  080%=      5-min Rain = 0
KBWS 190805Z 33015G22KT 01/M02 A3014 RMK A01 T00141019  RH  080%=      5-min Rain = 0
KBWS 190810Z 33018G27KT 02/M02 A3014 RMK A01 T00151023  RH  077%=      5-min Rain = 0
KBWS 190815Z 33021G29KT 02/M03 A3014 RMK A01 T00151027  RH  074%=      5-min Rain = 0
KBWS 190820Z 34020G26KT 02/M03 A3014 RMK A01 T00151030  RH  073%=      5-min Rain = 0
KBWS 190825Z 33018G25KT 01/M03 A3015 RMK A01 T00131030  RH  074%=      5-min Rain = 0
KBWS 190830Z 33018G23KT 01/M03 A3015 RMK A01 T00131031  RH  074%=      5-min Rain = 0
KBWS 190835Z 33018KT 01/M03 A3015 RMK A01 T00131031  RH  074%=      5-min Rain = 0
KBWS 190840Z 34020G25KT 01/M03 A3015 RMK A01 T00131033  RH  072%=      5-min Rain = 0
KBWS 190845Z 34019KT 01/M03 A3015 RMK A01 T00131034  RH  072%=      5-min Rain = 0
KBWS 190850Z 34017KT 01/M03 A3015 RMK A01 T00121034  RH  072%=      5-min Rain = 0
KBWS 190855Z 33016G21KT 01/M03 A3015 RMK A01 T00111033  RH  073%=      5-min Rain = 0
KBWS 190900Z 33018KT 01/M03 A3015 RMK A01 T00111033  RH  073%=      5-min Rain = 0
KBWS 190905Z 33015G23KT 01/M03 A3015 RMK A01 T00111032  RH  073%=      5-min Rain = 0
KBWS 190910Z 33017G23KT 01/M03 A3016 RMK A01 T00111031  RH  074%=      5-min Rain = 0
KBWS 190915Z 33017G23KT 01/M03 A3016 RMK A01 T00101031  RH  075%=      5-min Rain = 0
KBWS 190920Z 33018G23KT 01/M03 A3016 RMK A01 T00111031  RH  074%=      5-min Rain = 0
KBWS 190925Z 33020G25KT 01/M03 A3016 RMK A01 T00121032  RH  073%=      5-min Rain = 0
KBWS 190930Z 33020G27KT 01/M03 A3017 RMK A01 T00111033  RH  073%=      5-min Rain = 0
KBWS 190935Z 33021G27KT 01/M03 A3017 RMK A01 T00111034  RH  072%=      5-min Rain = 0
KBWS 190940Z 33021KT 01/M04 A3017 RMK A01 T00121035  RH  071%=      5-min Rain = 0
KBWS 190945Z 33019G26KT 01/M04 A3017 RMK A01 T00121036  RH  072%=      5-min Rain = 0
KBWS 190950Z 33019KT 01/M04 A3017 RMK A01 T00111035  RH  072%=      5-min Rain = 0
KBWS 190955Z 33019G24KT 01/M04 A3018 RMK A01 T00121035  RH  072%=      5-min Rain = 0
KBWS 191000Z 33018G23KT 01/M03 A3018 RMK A01 T00121034  RH  072%=      5-min Rain = 0
KBWS 191005Z 33017G23KT 01/M03 A3018 RMK A01 T00111034  RH  073%=      5-min Rain = 0
KBWS 191010Z 33017G23KT 01/M03 A3018 RMK A01 T00111033  RH  073%=      5-min Rain = 0
KBWS 191015Z 33017G24KT 01/M03 A3018 RMK A01 T00111033  RH  073%=      5-min Rain = 0
KBWS 191020Z 33021KT 01/M03 A3018 RMK A01 T00121033  RH  073%=      5-min Rain = 0
KBWS 191025Z 33018G24KT 01/M03 A3018 RMK A01 T00121033  RH  073%=      5-min Rain = 0
KBWS 191030Z 33018G23KT 01/M03 A3018 RMK A01 T00131033  RH  072%=      5-min Rain = 0
KBWS 191035Z 33020G25KT 01/M03 A3019 RMK A01 T00131034  RH  072%=      5-min Rain = 0
KBWS 191040Z 33020KT 02/M03 A3019 RMK A01 T00151034  RH  071%=      5-min Rain = 0
KBWS 191045Z 33020G25KT 02/M03 A3019 RMK A01 T00151034  RH  070%=      5-min Rain = 0
KBWS 191050Z 33018G25KT 02/M04 A3019 RMK A01 T00161035  RH  070%=      5-min Rain = 0
KBWS 191055Z 33017G22KT 02/M04 A3019 RMK A01 T00151035  RH  070%=      5-min Rain = 0
KBWS 191100Z 33016G22KT 01/M04 A3019 RMK A01 T00141035  RH  071%=      5-min Rain = 0
KBWS 191105Z 33016G23KT 01/M03 A3019 RMK A01 T00131034  RH  071%=      5-min Rain = 0
KBWS 191110Z 33017G23KT 01/M03 A3019 RMK A01 T00141034  RH  071%=      5-min Rain = 0
KBWS 191115Z 33017KT 01/M03 A3019 RMK A01 T00131034  RH  072%=      5-min Rain = 0
KBWS 191120Z 34015G20KT 01/M03 A3019 RMK A01 T00121034  RH  072%=      5-min Rain = 0
KBWS 191125Z 34015KT 01/M04 A3019 RMK A01 T00131035  RH  072%=      5-min Rain = 0
KBWS 191130Z 34015G20KT 01/M04 A3019 RMK A01 T00131035  RH  071%=      5-min Rain = 0
KBWS 191135Z 34015G20KT 01/M04 A3019 RMK A01 T00131035  RH  071%=      5-min Rain = 0
KBWS 191140Z 34014G19KT 01/M04 A3019 RMK A01 T00121035  RH  072%=      5-min Rain = 0
KBWS 191145Z 34014KT 01/M04 A3019 RMK A01 T00111035  RH  072%=      5-min Rain = 0
KBWS 191150Z 33014KT 01/M04 A3019 RMK A01 T00101035  RH  072%=      5-min Rain = 0
KBWS 191155Z 33015G20KT 01/M04 A3019 RMK A01 T00101035  RH  072%=      5-min Rain = 0
KBWS 191200Z 33016G21KT 01/M04 A3019 RMK A01 T00121035  RH  071%=      5-min Rain = 0
KBWS 191205Z 33014G20KT 01/M04 A3019 RMK A01 T00111036  RH  072%=      5-min Rain = 0
KBWS 191210Z 33016KT 01/M04 A302 RMK A01 T00121036  RH  071%=      5-min Rain = 0
KBWS 191215Z 33014G19KT 01/M04 A302 RMK A01 T00111036  RH  072%=      5-min Rain = 0
KBWS 191220Z 33014KT 01/M04 A302 RMK A01 T00101036  RH  072%=      5-min Rain = 0
KBWS 191225Z 33015G20KT 01/M04 A3021 RMK A01 T00111036  RH  072%=      5-min Rain = 0
KBWS 191230Z 33013KT 01/M04 A3021 RMK A01 T00101036  RH  072%=      5-min Rain = 0
KBWS 191235Z 33014KT 01/M04 A3021 RMK A01 T00091036  RH  072%=      5-min Rain = 0
KBWS 191240Z 33013KT 01/M04 A3021 RMK A01 T00101037  RH  072%=      5-min Rain = 0
KBWS 191245Z 34013KT 01/M04 A3022 RMK A01 T00101038  RH  071%=      5-min Rain = 0
KBWS 191250Z 33014KT 01/M04 A3022 RMK A01 T00111038  RH  071%=      5-min Rain = 0
KBWS 191255Z 33014KT 01/M04 A3023 RMK A01 T00131038  RH  070%=      5-min Rain = 0
KBWS 191300Z 33014KT 01/M04 A3023 RMK A01 T00121038  RH  070%=      5-min Rain = 0
KBWS 191305Z 32012G17KT 01/M04 A3024 RMK A01 T00111038  RH  071%=      5-min Rain = 0
KBWS 191310Z 32011KT 01/M04 A3024 RMK A01 T00081038  RH  072%=      5-min Rain = 0
KBWS 191315Z 32010KT 01/M04 A3025 RMK A01 T00061038  RH  073%=      5-min Rain = 0
KBWS 191320Z 32009KT 00/M04 A3025 RMK A01 T00041038  RH  074%=      5-min Rain = 0
KBWS 191325Z 32009KT 00/M04 A3025 RMK A01 T00041038  RH  074%=      5-min Rain = 0
KBWS 191330Z 32009KT 00/M04 A3026 RMK A01 T00041038  RH  074%=      5-min Rain = 0
KBWS 191335Z 31010KT 00/M04 A3026 RMK A01 T00031038  RH  075%=      5-min Rain = 0
KBWS 191340Z 31010KT 00/M04 A3026 RMK A01 T00031038  RH  075%=      5-min Rain = 0
KBWS 191345Z 31010KT 00/M04 A3027 RMK A01 T00021038  RH  075%=      5-min Rain = 0
KBWS 191350Z 32012KT 00/M04 A3027 RMK A01 T00041038  RH  074%=      5-min Rain = 0
KBWS 191355Z 32012KT 00/M04 A3027 RMK A01 T00041038  RH  074%=      5-min Rain = 0
KBWS 191400Z 32012KT 01/M04 A3027 RMK A01 T00051038  RH  074%=      5-min Rain = 0
KBWS 191405Z 31013KT 01/M04 A3027 RMK A01 T00071038  RH  073%=      5-min Rain = 0
KBWS 191410Z 32014KT 01/M04 A3027 RMK A01 T00081038  RH  072%=      5-min Rain = 0
KBWS 191415Z 32013KT 01/M04 A3027 RMK A01 T00091038  RH  072%=      5-min Rain = 0
KBWS 191420Z 32013KT 01/M04 A3028 RMK A01 T00101038  RH  071%=      5-min Rain = 0
KBWS 191425Z 32012KT 01/M04 A3028 RMK A01 T00121037  RH  071%=      5-min Rain = 0
KBWS 191430Z 31012KT 01/M04 A3028 RMK A01 T00131037  RH  070%=      5-min Rain = 0
KBWS 191435Z 31011KT 01/M04 A3029 RMK A01 T00141036  RH  070%=      5-min Rain = 0
KBWS 191440Z 31011KT 02/M04 A3029 RMK A01 T00151036  RH  070%=      5-min Rain = 0
KBWS 191445Z 31011KT 02/M04 A3029 RMK A01 T00171035  RH  069%=      5-min Rain = 0
KBWS 191450Z 31012KT 02/M04 A3029 RMK A01 T00191035  RH  068%=      5-min Rain = 0
KBWS 191455Z 32013KT 02/M03 A3029 RMK A01 T00211034  RH  067%=      5-min Rain = 0
KBWS 191500Z 32014KT 03/M03 A303 RMK A01 T00251034  RH  066%=      5-min Rain = 0
KBWS 191505Z 32013KT 03/M03 A303 RMK A01 T00281034  RH  064%=      5-min Rain = 0
KBWS 191510Z 32014G19KT 03/M03 A303 RMK A01 T00311034  RH  063%=      5-min Rain = 0
KBWS 191515Z 32013KT 03/M03 A3031 RMK A01 T00341033  RH  062%=      5-min Rain = 0
KBWS 191520Z 33013KT 04/M03 A3031 RMK A01 T00381032  RH  061%=      5-min Rain = 0
KBWS 191525Z 33014KT 04/M03 A3031 RMK A01 T00411033  RH  059%=      5-min Rain = 0
KBWS 191530Z 33015KT 04/M03 A3031 RMK A01 T00431034  RH  058%=      5-min Rain = 0
KBWS 191535Z 33014G20KT 05/M03 A3031 RMK A01 T00461034  RH  057%=      5-min Rain = 0
KBWS 191540Z 33015G20KT 05/M03 A3031 RMK A01 T00491034  RH  055%=      5-min Rain = 0
KBWS 191545Z 33014KT 05/M04 A3031 RMK A01 T00521035  RH  054%=      5-min Rain = 0
KBWS 191550Z 34015G20KT 06/M04 A3032 RMK A01 T00551036  RH  053%=      5-min Rain = 0
KBWS 191555Z 34015G20KT 06/M04 A3032 RMK A01 T00571037  RH  051%=      5-min Rain = 0
KBWS 191600Z 34017G22KT 06/M04 A3032 RMK A01 T00581039  RH  050%=      5-min Rain = 0
KBWS 191605Z 34015G20KT 06/M04 A3032 RMK A01 T00591038  RH  050%=      5-min Rain = 0
KBWS 191610Z 34014G20KT 06/M04 A3032 RMK A01 T00611037  RH  050%=      5-min Rain = 0
KBWS 191615Z 34016G21KT 06/M04 A3032 RMK A01 T00611038  RH  050%=      5-min Rain = 0
KBWS 191620Z 35017G25KT 06/M04 A3032 RMK A01 T00631038  RH  049%=      5-min Rain = 0
KBWS 191625Z 35017G23KT 07/M04 A3032 RMK A01 T00661040  RH  047%=      5-min Rain = 0
KBWS 191630Z 34015KT 07/M04 A3033 RMK A01 T00701039  RH  047%=      5-min Rain = 0
KBWS 191635Z 35015G22KT 07/M04 A3033 RMK A01 T00721039  RH  046%=      5-min Rain = 0
KBWS 191640Z 35017G22KT 07/M04 A3033 RMK A01 T00711041  RH  045%=      5-min Rain = 0
KBWS 191645Z 35015G20KT 07/M04 A3033 RMK A01 T00721040  RH  045%=      5-min Rain = 0
KBWS 191650Z 34017G23KT 07/M04 A3033 RMK A01 T00721041  RH  045%=      5-min Rain = 0
KBWS 191655Z 35016G21KT 07/M04 A3033 RMK A01 T00731040  RH  045%=      5-min Rain = 0
KBWS 191700Z 35016G22KT 08/M04 A3033 RMK A01 T00751041  RH  044%=      5-min Rain = 0
KBWS 191705Z 35016G21KT 08/M04 A3033 RMK A01 T00791039  RH  043%=      5-min Rain = 0
KBWS 191710Z 35016G22KT 08/M04 A3033 RMK A01 T00801040  RH  043%=      5-min Rain = 0
KBWS 191715Z 36017KT 08/M04 A3033 RMK A01 T00801040  RH  043%=      5-min Rain = 0
KBWS 191720Z 36016G23KT 08/M04 A3033 RMK A01 T00821038  RH  043%=      5-min Rain = 0
KBWS 191725Z 36015G21KT 08/M04 A3034 RMK A01 T00821038  RH  043%=      5-min Rain = 0
KBWS 191730Z 35015KT 09/M04 A3034 RMK A01 T00851036  RH  043%=      5-min Rain = 0
KBWS 191735Z 35017KT 09/M04 A3034 RMK A01 T00851038  RH  042%=      5-min Rain = 0
KBWS 191740Z 34016KT 09/M04 A3034 RMK A01 T00851038  RH  042%=      5-min Rain = 0
KBWS 191745Z 00013KT 09/M04 A3034 RMK A01 T00891036  RH  042%=      5-min Rain = 0
KBWS 191750Z 35013KT 09/M04 A3034 RMK A01 T00911035  RH  041%=      5-min Rain = 0
KBWS 191755Z 36012KT 09/M03 A3033 RMK A01 T00921033  RH  042%=      5-min Rain = 0
KBWS 191800Z 34013G18KT 09/M03 A3033 RMK A01 T00931033  RH  042%=      5-min Rain = 0
KBWS 191805Z 33014G19KT 09/M03 A3033 RMK A01 T00901034  RH  042%=      5-min Rain = 0
KBWS 191810Z 32015G20KT 09/M03 A3033 RMK A01 T00931033  RH  042%=      5-min Rain = 0
KBWS 191815Z 33014G21KT 09/M03 A3033 RMK A01 T00941033  RH  041%=      5-min Rain = 0
KBWS 191820Z 35011G16KT 10/M03 A3033 RMK A01 T00971030  RH  041%=      5-min Rain = 0
KBWS 191825Z 34012G17KT 10/M03 A3033 RMK A01 T00971032  RH  041%=      5-min Rain = 0
KBWS 191830Z 33012G17KT 10/M03 A3033 RMK A01 T00971032  RH  041%=      5-min Rain = 0
KBWS 191835Z 33010KT 10/M03 A3033 RMK A01 T00991030  RH  041%=      5-min Rain = 0
KBWS 191840Z 35012G21KT 10/M03 A3032 RMK A01 T01011033  RH  039%=      5-min Rain = 0
KBWS 191845Z 35012G20KT 10/M04 A3032 RMK A01 T01021035  RH  039%=      5-min Rain = 0
KBWS 191850Z 35012G19KT 10/M03 A3032 RMK A01 T01031032  RH  039%=      5-min Rain = 0
KBWS 191855Z 36014KT 10/M03 A3032 RMK A01 T01011034  RH  039%=      5-min Rain = 0
KBWS 191900Z 36013G18KT 10/M03 A3031 RMK A01 T01021034  RH  039%=      5-min Rain = 0
KBWS 191905Z 35010KT 10/M03 A3031 RMK A01 T01041031  RH  039%=      5-min Rain = 0
KBWS 191910Z 35012G17KT 11/M03 A3032 RMK A01 T01051033  RH  038%=      5-min Rain = 0
KBWS 191915Z 35010G20KT 11/M03 A3031 RMK A01 T01061030  RH  039%=      5-min Rain = 0
KBWS 191920Z 34011G16KT 11/M03 A3031 RMK A01 T01061033  RH  038%=      5-min Rain = 0
KBWS 191925Z 34011KT 11/M03 A303 RMK A01 T01061032  RH  038%=      5-min Rain = 0
KBWS 191930Z 34007G12KT 11/M03 A303 RMK A01 T01061031  RH  038%=      5-min Rain = 0
KBWS 191935Z 33013KT 11/M03 A303 RMK A01 T01111034  RH  036%=      5-min Rain = 0
KBWS 191940Z 32011KT 11/M03 A3029 RMK A01 T01131034  RH  036%=      5-min Rain = 0
KBWS 191945Z 34008G16KT 11/M04 A3029 RMK A01 T01111035  RH  036%=      5-min Rain = 0
KBWS 191950Z 35011KT 11/M03 A3029 RMK A01 T01121033  RH  036%=      5-min Rain = 0
KBWS 191955Z 34010G15KT 12/M03 A3029 RMK A01 T01151032  RH  036%=      5-min Rain = 0
KBWS 192000Z 33013G18KT 12/M04 A3029 RMK A01 T01151036  RH  035%=      5-min Rain = 0
KBWS 192005Z 34013KT 12/M04 A3029 RMK A01 T01161035  RH  035%=      5-min Rain = 0
KBWS 192010Z 34012KT 12/M04 A3028 RMK A01 T01151035  RH  035%=      5-min Rain = 0
KBWS 192015Z 34012G18KT 11/M04 A3028 RMK A01 T01141036  RH  035%=      5-min Rain = 0
KBWS 192020Z 33013KT 12/M04 A3028 RMK A01 T01161038  RH  034%=      5-min Rain = 0
KBWS 192025Z 32011KT 12/M04 A3028 RMK A01 T01161037  RH  034%=      5-min Rain = 0
KBWS 192030Z 31010KT 12/M04 A3027 RMK A01 T01201035  RH  034%=      5-min Rain = 0
KBWS 192035Z 31011KT 12/M04 A3027 RMK A01 T01231035  RH  033%=      5-min Rain = 0
KBWS 192040Z 32010KT 12/M04 A3027 RMK A01 T01201039  RH  033%=      5-min Rain = 0
KBWS 192045Z 33011G16KT 12/M04 A3027 RMK A01 T01191038  RH  033%=      5-min Rain = 0
KBWS 192050Z 33010KT 12/M04 A3027 RMK A01 T01211037  RH  033%=      5-min Rain = 0
KBWS 192055Z 30008G13KT 12/M04 A3027 RMK A01 T01231036  RH  033%=      5-min Rain = 0
KBWS 192100Z 30010KT 12/M03 A3026 RMK A01 T01241033  RH  034%=      5-min Rain = 0
KBWS 192105Z 33008G13KT 12/M04 A3026 RMK A01 T01241035  RH  033%=      5-min Rain = 0
KBWS 192110Z 33008KT 12/M04 A3026 RMK A01 T01231035  RH  033%=      5-min Rain = 0
KBWS 192115Z 32009KT 12/M04 A3026 RMK A01 T01241039  RH  032%=      5-min Rain = 0
KBWS 192120Z 31010G16KT 13/M05 A3026 RMK A01 T01251045  RH  030%=      5-min Rain = 0
KBWS 192125Z 30009G14KT 13/M04 A3026 RMK A01 T01271043  RH  031%=      5-min Rain = 0
KBWS 192130Z 31007KT 13/M04 A3026 RMK A01 T01281042  RH  031%=      5-min Rain = 0
KBWS 192135Z 34010KT 13/M05 A3026 RMK A01 T01251046  RH  030%=      5-min Rain = 0
KBWS 192140Z 34008KT 12/M04 A3026 RMK A01 T01241044  RH  031%=      5-min Rain = 0
KBWS 192145Z 31011G17KT 13/M04 A3026 RMK A01 T01271042  RH  031%=      5-min Rain = 0
KBWS 192150Z 32007G12KT 13/M04 A3025 RMK A01 T01251043  RH  031%=      5-min Rain = 0
KBWS 192155Z 33009KT 13/M05 A3025 RMK A01 T01271045  RH  030%=      5-min Rain = 0
KBWS 192200Z 35007KT 13/M05 A3025 RMK A01 T01261047  RH  030%=      5-min Rain = 0
KBWS 192205Z 33009KT 13/M05 A3025 RMK A01 T01261048  RH  030%=      5-min Rain = 0
KBWS 192210Z 33009G14KT 13/M05 A3025 RMK A01 T01271045  RH  030%=      5-min Rain = 0
KBWS 192215Z 33007KT 13/M05 A3025 RMK A01 T01261047  RH  030%=      5-min Rain = 0
KBWS 192220Z 33007KT 13/M05 A3025 RMK A01 T01251047  RH  030%=      5-min Rain = 0
KBWS 192225Z 33008G13KT 13/M05 A3025 RMK A01 T01261049  RH  029%=      5-min Rain = 0
KBWS 192230Z 32009KT 13/M05 A3025 RMK A01 T01261051  RH  029%=      5-min Rain = 0
KBWS 192235Z 34008KT 13/M05 A3025 RMK A01 T01261049  RH  029%=      5-min Rain = 0
KBWS 192240Z 34008KT 13/M05 A3025 RMK A01 T01261045  RH  030%=      5-min Rain = 0
KBWS 192245Z 33009KT 13/M05 A3025 RMK A01 T01261051  RH  029%=      5-min Rain = 0
KBWS 192250Z 33009KT 12/M05 A3025 RMK A01 T01241052  RH  029%=      5-min Rain = 0
KBWS 192255Z 32007KT 12/M05 A3025 RMK A01 T01241052  RH  029%=      5-min Rain = 0
KBWS 192300Z 33007KT 13/M05 A3025 RMK A01 T01251050  RH  029%=      5-min Rain = 0
KBWS 192305Z 35006KT 12/M05 A3025 RMK A01 T01241050  RH  030%=      5-min Rain = 0
KBWS 192310Z 36006KT 12/M05 A3025 RMK A01 T01221052  RH  030%=      5-min Rain = 0
KBWS 192315Z 35007KT 12/M05 A3025 RMK A01 T01211054  RH  029%=      5-min Rain = 0
KBWS 192320Z 34006KT 12/M05 A3025 RMK A01 T01211053  RH  030%=      5-min Rain = 0
KBWS 192325Z 34006KT 12/M05 A3025 RMK A01 T01201053  RH  030%=      5-min Rain = 0
KBWS 192330Z 35006KT 12/M05 A3025 RMK A01 T01191053  RH  030%=      5-min Rain = 0
KBWS 192335Z 34006KT 12/M05 A3025 RMK A01 T01181054  RH  030%=      5-min Rain = 0
KBWS 192340Z 34006KT 12/M06 A3025 RMK A01 T01161056  RH  030%=      5-min Rain = 0
KBWS 192345Z 34006KT 11/M06 A3025 RMK A01 T01141057  RH  030%=      5-min Rain = 0
KBWS 192350Z 34005KT 11/M06 A3025 RMK A01 T01121058  RH  030%=      5-min Rain = 0
KBWS 192355Z 34004KT 11/M06 A3025 RMK A01 T01101058  RH  031%=      5-min Rain = 0
KBWS 200000Z 36004KT 11/M06 A3025 RMK A01 T01071056  RH  032%=      5-min Rain = 0
KBWS 200005Z 01003KT 10/M05 A3025 RMK A01 T01041054  RH  033%=      5-min Rain = 0
KBWS 200010Z 01003KT 10/M05 A3025 RMK A01 T01041053  RH  033%=      5-min Rain = 0
KBWS 200015Z 02003KT 10/M05 A3026 RMK A01 T01021051  RH  034%=      5-min Rain = 0
KBWS 200020Z 02004KT 10/M05 A3025 RMK A01 T00961050  RH  036%=      5-min Rain = 0
KBWS 200025Z 04005KT 09/M05 A3026 RMK A01 T00911047  RH  038%=      5-min Rain = 0
KBWS 200030Z 05005KT 09/M05 A3026 RMK A01 T00861047  RH  039%=      5-min Rain = 0
KBWS 200035Z 05006KT 08/M05 A3026 RMK A01 T00821047  RH  040%=      5-min Rain = 0
KBWS 200040Z 05005KT 08/M05 A3026 RMK A01 T00761046  RH  042%=      5-min Rain = 0
KBWS 200045Z 05005KT 07/M05 A3026 RMK A01 T00731045  RH  043%=      5-min Rain = 0
KBWS 200050Z 07003KT 07/M04 A3026 RMK A01 T00701039  RH  046%=      5-min Rain = 0
KBWS 200055Z 09003KT 06/M04 A3026 RMK A01 T00631040  RH  048%=      5-min Rain = 0
KBWS 200100Z 09003KT 06/M04 A3026 RMK A01 T00571040  RH  050%=      5-min Rain = 0
KBWS 200105Z 08003KT 06/M04 A3026 RMK A01 T00551038  RH  052%=      5-min Rain = 0
KBWS 200110Z 08004KT 06/M04 A3026 RMK A01 T00621039  RH  049%=      5-min Rain = 0
KBWS 200115Z 09004KT 06/M04 A3027 RMK A01 T00621040  RH  048%=      5-min Rain = 0
KBWS 200120Z 09004KT 06/M04 A3027 RMK A01 T00581037  RH  051%=      5-min Rain = 0
KBWS 200125Z 10004KT 06/M04 A3026 RMK A01 T00561035  RH  053%=      5-min Rain = 0
KBWS 200130Z 09004KT 06/M04 A3026 RMK A01 T00571040  RH  050%=      5-min Rain = 0
KBWS 200135Z 08005KT 06/M04 A3026 RMK A01 T00561037  RH  052%=      5-min Rain = 0
KBWS 200140Z 08005KT 06/M04 A3026 RMK A01 T00561037  RH  052%=      5-min Rain = 0
KBWS 200145Z 08006KT 06/M04 A3026 RMK A01 T00561037  RH  052%=      5-min Rain = 0
KBWS 200150Z 09006KT 05/M04 A3026 RMK A01 T00541037  RH  053%=      5-min Rain = 0
KBWS 200155Z 10005KT 05/M03 A3025 RMK A01 T00451032  RH  058%=      5-min Rain = 0
KBWS 200200Z 12006KT 04/M04 A3025 RMK A01 T00351035  RH  061%=      5-min Rain = 0
KBWS 200205Z 13006KT 03/M03 A3026 RMK A01 T00281033  RH  065%=      5-min Rain = 0
KBWS 200210Z 12005KT 03/M03 A3026 RMK A01 T00271034  RH  065%=      5-min Rain = 0
KBWS 200215Z 11005KT 03/M04 A3026 RMK A01 T00321036  RH  062%=      5-min Rain = 0
KBWS 200220Z 10005KT 04/M04 A3027 RMK A01 T00351038  RH  060%=      5-min Rain = 0
KBWS 200225Z 10005KT 04/M04 A3027 RMK A01 T00381038  RH  058%=      5-min Rain = 0
KBWS 200230Z 09005KT 04/M04 A3027 RMK A01 T00381040  RH  057%=      5-min Rain = 0
KBWS 200235Z 09005KT 04/M04 A3027 RMK A01 T00391040  RH  057%=      5-min Rain = 0
KBWS 200240Z 09005KT 04/M04 A3028 RMK A01 T00401040  RH  057%=      5-min Rain = 0
KBWS 200245Z 08005KT 04/M04 A3028 RMK A01 T00401038  RH  057%=      5-min Rain = 0
KBWS 200250Z 08004KT 04/M04 A3029 RMK A01 T00391039  RH  057%=      5-min Rain = 0
KBWS 200255Z 09004KT 04/M04 A3029 RMK A01 T00381036  RH  059%=      5-min Rain = 0
KBWS 200300Z 08004KT 04/M04 A3029 RMK A01 T00391039  RH  057%=      5-min Rain = 0
KBWS 200305Z 08005KT 04/M04 A3029 RMK A01 T00391038  RH  058%=      5-min Rain = 0
KBWS 200310Z 09006KT 04/M04 A3028 RMK A01 T00351040  RH  058%=      5-min Rain = 0
KBWS 200315Z 09005KT 03/M04 A3029 RMK A01 T00311041  RH  060%=      5-min Rain = 0
KBWS 200320Z 11005KT 03/M04 A3029 RMK A01 T00311039  RH  061%=      5-min Rain = 0
KBWS 200325Z 12006KT 03/M04 A3028 RMK A01 T00251041  RH  063%=      5-min Rain = 0
KBWS 200330Z 11006KT 02/M04 A3028 RMK A01 T00161041  RH  066%=      5-min Rain = 0
KBWS 200335Z 13007KT 01/M04 A3027 RMK A01 T00131040  RH  069%=      5-min Rain = 0
KBWS 200340Z 12006KT 01/M04 A3027 RMK A01 T00131038  RH  069%=      5-min Rain = 0
KBWS 200345Z 13005KT 01/M04 A3028 RMK A01 T00121038  RH  070%=      5-min Rain = 0
KBWS 200350Z 12006KT 01/M04 A3028 RMK A01 T00121038  RH  070%=      5-min Rain = 0
KBWS 200355Z 12006KT 01/M04 A3027 RMK A01 T00121040  RH  069%=      5-min Rain = 0
KBWS 200400Z 13006KT 01/M04 A3027 RMK A01 T00121041  RH  069%=      5-min Rain = 0
KBWS 200405Z 13006KT 01/M04 A3027 RMK A01 T00121039  RH  069%=      5-min Rain = 0
KBWS 200410Z 14006KT 01/M04 A3027 RMK A01 T00091040  RH  071%=      5-min Rain = 0
KBWS 200415Z 14005KT 01/M04 A3027 RMK A01 T00081039  RH  072%=      5-min Rain = 0
KBWS 200420Z 13005KT 01/M04 A3028 RMK A01 T00091039  RH  071%=      5-min Rain = 0
KBWS 200425Z 13005KT 01/M04 A3028 RMK A01 T00101041  RH  070%=      5-min Rain = 0
KBWS 200430Z 14005KT 01/M04 A3028 RMK A01 T00101042  RH  069%=      5-min Rain = 0
KBWS 200435Z 13005KT 01/M04 A3028 RMK A01 T00091042  RH  069%=      5-min Rain = 0
KBWS 200440Z 14004KT 01/M04 A3028 RMK A01 T00101042  RH  069%=      5-min Rain = 0
KBWS 200445Z 15005KT 01/M04 A3028 RMK A01 T00091042  RH  069%=      5-min Rain = 0
KBWS 200450Z 15005KT 01/M04 A3028 RMK A01 T00101042  RH  069%=      5-min Rain = 0
KBWS 200455Z 16005KT 01/M04 A3028 RMK A01 T00121042  RH  068%=      5-min Rain = 0
KBWS 200500Z 16006KT 01/M05 A3028 RMK A01 T00111045  RH  067%=      5-min Rain = 0
KBWS 200505Z 17006KT 01/M05 A3028 RMK A01 T00081045  RH  068%=      5-min Rain = 0
KBWS 200510Z 17007KT 01/M05 A3028 RMK A01 T00071045  RH  069%=      5-min Rain = 0
KBWS 200515Z 16007KT 01/M05 A3028 RMK A01 T00051045  RH  070%=      5-min Rain = 0
KBWS 200520Z 16007KT 00/05 A3028 RMK A01 T00000-45  RH  072%=      5-min Rain = 0
KBWS 200525Z 16008KT 00/M05 A3028 RMK A01 T00021046  RH  071%=      5-min Rain = 0
KBWS 200530Z 16007KT M00/M05 A3029 RMK A01 T10011047  RH  072%=      5-min Rain = 0
KBWS 200535Z 16007KT M00/M05 A3029 RMK A01 T10031047  RH  073%=      5-min Rain = 0
KBWS 200540Z 17007KT M00/M05 A3029 RMK A01 T10031047  RH  073%=      5-min Rain = 0
KBWS 200545Z 16006KT 00/M05 A3029 RMK A01 T00011048  RH  070%=      5-min Rain = 0
KBWS 200550Z 17006KT 00/M05 A3029 RMK A01 T00021048  RH  070%=      5-min Rain = 0
KBWS 200555Z 17007KT 00/M05 A3029 RMK A01 T00011049  RH  070%=      5-min Rain = 0

Page generated in 0.0091 seconds.